createdAt,value
2022-07-28T00:00:44.113Z,94026.00
2022-07-28T00:03:10.841Z,94043.84
2022-07-28T00:05:37.624Z,94036.47
2022-07-28T00:08:05.479Z,94020.78
2022-07-28T00:10:32.472Z,94034.72
2022-07-28T00:13:00.077Z,94044.66
2022-07-28T00:15:27.820Z,94051.22
2022-07-28T00:17:54.527Z,94055.66
2022-07-28T00:20:21.480Z,94054.38
2022-07-28T00:22:48.263Z,94028.41
2022-07-28T00:25:15.368Z,94014.91
2022-07-28T00:27:42.121Z,94032.97
2022-07-28T00:30:10.165Z,94037.38
2022-07-28T00:32:37.797Z,94033.91
2022-07-28T00:35:05.184Z,94038.28
2022-07-28T00:37:35.098Z,94037.22
2022-07-28T00:40:02.391Z,94030.44
2022-07-28T00:42:29.066Z,94030.25
2022-07-28T00:44:55.748Z,94040.81
2022-07-28T00:47:22.521Z,94053.28
2022-07-28T00:49:50.437Z,94058.22
2022-07-28T00:52:18.410Z,94046.44
2022-07-28T00:54:45.171Z,94061.59
2022-07-28T00:57:11.933Z,94070.94
2022-07-28T00:59:38.645Z,94077.16
2022-07-28T01:02:05.462Z,94076.50
2022-07-28T01:04:32.490Z,94072.44
2022-07-28T01:07:17.304Z,94074.50
2022-07-28T01:10:13.870Z,94090.06
2022-07-28T01:12:51.147Z,94102.91
2022-07-28T01:15:29.175Z,94097.75
2022-07-28T01:18:20.400Z,94085.22
2022-07-28T01:20:49.904Z,94077.13
2022-07-28T01:23:31.451Z,94072.97
2022-07-28T01:26:34.067Z,94075.44
2022-07-28T01:29:22.643Z,94061.19
2022-07-28T01:31:59.789Z,94056.81
2022-07-28T01:35:11.702Z,94053.69
2022-07-28T01:37:51.902Z,94062.75
2022-07-28T01:40:22.701Z,94063.09
2022-07-28T01:42:54.245Z,94062.94
2022-07-28T01:45:21.809Z,94059.88
2022-07-28T01:47:50.020Z,94051.25
2022-07-28T01:50:21.324Z,94061.09
2022-07-28T01:52:49.925Z,94051.59
2022-07-28T01:55:20.439Z,94045.94
2022-07-28T01:57:49.253Z,94044.00
2022-07-28T02:00:17.835Z,94037.38
2022-07-28T02:02:46.980Z,94039.38
2022-07-28T02:05:17.123Z,94038.25
2022-07-28T02:07:49.538Z,94046.88
2022-07-28T02:10:18.510Z,94055.91
2022-07-28T02:12:48.813Z,94062.72
2022-07-28T02:15:16.131Z,94056.88
2022-07-28T02:17:47.060Z,94062.31
2022-07-28T02:20:16.444Z,94061.88
2022-07-28T02:22:45.515Z,94050.28
2022-07-28T02:25:19.775Z,94058.94
2022-07-28T02:27:58.495Z,94053.84
2022-07-28T02:30:37.290Z,94052.22
2022-07-28T02:33:24.439Z,94055.53
2022-07-28T02:36:14.225Z,94052.88
2022-07-28T02:38:46.648Z,94057.75
2022-07-28T02:41:25.760Z,94056.81
2022-07-28T02:43:56.841Z,94055.53
2022-07-28T02:46:29.340Z,94068.31
2022-07-28T02:49:03.126Z,94065.84
2022-07-28T02:51:31.884Z,94079.00
2022-07-28T02:53:59.673Z,94070.38
2022-07-28T02:56:27.297Z,94073.22
2022-07-28T02:58:54.956Z,94072.31
2022-07-28T03:01:23.650Z,94066.34
2022-07-28T03:03:50.997Z,94062.72
2022-07-28T03:06:28.415Z,94073.66
2022-07-28T03:08:56.406Z,94071.31
2022-07-28T03:11:23.141Z,94060.03
2022-07-28T03:13:49.801Z,94060.34
2022-07-28T03:16:16.544Z,94055.69
2022-07-28T03:18:43.230Z,94041.03
2022-07-28T03:21:09.865Z,94056.47
2022-07-28T03:23:45.738Z,94048.66
2022-07-28T03:26:37.304Z,94039.53
2022-07-28T03:29:04.282Z,94033.22
2022-07-28T03:31:33.841Z,94032.25
2022-07-28T03:34:00.694Z,94031.66
2022-07-28T03:36:35.826Z,94012.84
2022-07-28T03:39:06.417Z,94017.44
2022-07-28T03:41:34.481Z,94019.47
2022-07-28T03:44:02.766Z,94017.72
2022-07-28T03:46:29.732Z,94011.00
2022-07-28T03:48:56.508Z,93994.28
2022-07-28T03:51:25.595Z,93993.59
2022-07-28T03:53:52.312Z,93980.72
2022-07-28T03:56:19.538Z,93971.66
2022-07-28T03:58:46.230Z,93973.44
2022-07-28T04:01:13.012Z,93964.44
2022-07-28T04:03:44.042Z,93959.19
2022-07-28T04:06:15.633Z,93966.97
2022-07-28T04:08:44.144Z,93977.44
2022-07-28T04:11:10.831Z,93998.03
2022-07-28T04:13:37.611Z,94003.81
2022-07-28T04:16:05.892Z,94000.25
2022-07-28T04:18:33.063Z,94002.28
2022-07-28T04:21:00.725Z,94018.06
2022-07-28T04:23:28.276Z,94049.63
2022-07-28T04:25:55.439Z,94069.94
2022-07-28T04:28:22.281Z,94076.25
2022-07-28T04:30:48.935Z,94078.63
2022-07-28T04:33:15.846Z,94090.09
2022-07-28T04:35:42.534Z,94102.22
2022-07-28T04:38:09.233Z,94090.22
2022-07-28T04:40:35.927Z,94077.78
2022-07-28T04:43:04.064Z,94072.97
2022-07-28T04:45:30.987Z,94089.53
2022-07-28T04:47:57.746Z,94102.31
2022-07-28T04:50:24.617Z,94097.06
2022-07-28T04:52:51.292Z,94092.06
2022-07-28T04:55:18.282Z,94103.22
2022-07-28T04:57:45.137Z,94105.44
2022-07-28T05:00:13.868Z,94087.13
2022-07-28T05:02:42.001Z,94072.16
2022-07-28T05:05:09.978Z,94064.25
2022-07-28T05:07:38.300Z,94078.91
2022-07-28T05:10:06.742Z,94077.78
2022-07-28T05:12:33.411Z,94083.56
2022-07-28T05:15:00.275Z,94089.03
2022-07-28T05:17:27.361Z,94098.38
2022-07-28T05:19:54.198Z,94098.22
2022-07-28T05:22:20.878Z,94102.03
2022-07-28T05:24:47.618Z,94094.72
2022-07-28T05:27:14.316Z,94115.75
2022-07-28T05:29:47.723Z,94115.94
2022-07-28T05:32:17.023Z,94111.25
2022-07-28T05:34:44.614Z,94098.16
2022-07-28T05:37:11.364Z,94100.78
2022-07-28T05:39:38.063Z,94102.66
2022-07-28T05:42:04.948Z,94106.44
2022-07-28T05:44:37.250Z,94095.28
2022-07-28T05:47:04.894Z,94100.22
2022-07-28T05:49:31.631Z,94100.44
2022-07-28T05:51:58.280Z,94101.03
2022-07-28T05:54:25.356Z,94096.88
2022-07-28T05:56:52.737Z,94085.69
2022-07-28T05:59:19.699Z,94092.41
2022-07-28T06:01:46.693Z,94084.75
2022-07-28T06:04:29.418Z,94091.66
2022-07-28T06:06:57.057Z,94089.81
2022-07-28T06:09:23.783Z,94096.88
2022-07-28T06:11:50.904Z,94094.88
2022-07-28T06:14:18.748Z,94087.28
2022-07-28T06:16:50.990Z,94091.09
2022-07-28T06:19:18.673Z,94076.06
2022-07-28T06:21:45.573Z,94082.03
2022-07-28T06:24:12.601Z,94091.56
2022-07-28T06:26:44.367Z,94096.72
2022-07-28T06:29:12.524Z,94096.91
2022-07-28T06:31:39.517Z,94105.94
2022-07-28T06:34:06.621Z,94108.06
2022-07-28T06:36:33.609Z,94098.63
2022-07-28T06:39:00.287Z,94091.97
2022-07-28T06:41:27.625Z,94094.81
2022-07-28T06:43:54.327Z,94095.03
2022-07-28T06:46:21.192Z,94100.50
2022-07-28T06:48:47.933Z,94091.75
2022-07-28T06:51:19.050Z,94086.19
2022-07-28T06:53:48.426Z,94090.53
2022-07-28T06:56:15.758Z,94095.69
2022-07-28T06:58:47.066Z,94099.31
2022-07-28T07:01:15.072Z,94092.06
2022-07-28T07:03:43.048Z,94094.06
2022-07-28T07:06:11.096Z,94094.38
2022-07-28T07:08:38.528Z,94097.53
2022-07-28T07:11:05.335Z,94103.34
2022-07-28T07:13:33.234Z,94094.47
2022-07-28T07:16:00.379Z,94103.00
2022-07-28T07:18:27.281Z,94090.34
2022-07-28T07:20:54.842Z,94096.75
2022-07-28T07:23:21.605Z,94103.25
2022-07-28T07:25:48.558Z,94105.78
2022-07-28T07:28:15.227Z,94102.81
2022-07-28T07:30:41.971Z,94102.63
2022-07-28T07:33:10.749Z,94114.38
2022-07-28T07:35:38.151Z,94122.16
2022-07-28T07:38:05.040Z,94109.16
2022-07-28T07:40:32.673Z,94115.47
2022-07-28T07:42:59.339Z,94123.31
2022-07-28T07:45:26.161Z,94133.44
2022-07-28T07:47:53.181Z,94130.09
2022-07-28T07:50:19.959Z,94134.44
2022-07-28T07:52:46.648Z,94133.22
2022-07-28T07:55:13.371Z,94125.53
2022-07-28T07:57:40.574Z,94136.53
2022-07-28T08:00:07.898Z,94143.50
2022-07-28T08:02:54.630Z,94136.97
2022-07-28T08:05:21.382Z,94132.81
2022-07-28T08:08:02.290Z,94136.53
2022-07-28T08:10:29.095Z,94132.38
2022-07-28T08:12:55.760Z,94130.19
2022-07-28T08:15:22.588Z,94133.59
2022-07-28T08:17:49.236Z,94140.69
2022-07-28T08:20:15.927Z,94139.50
2022-07-28T08:22:54.910Z,94143.72
2022-07-28T08:25:22.551Z,94148.84
2022-07-28T08:27:50.363Z,94146.75
2022-07-28T08:30:23.086Z,94148.31
2022-07-28T08:32:56.355Z,94153.44
2022-07-28T08:35:33.976Z,94157.91
2022-07-28T08:38:02.788Z,94160.34
2022-07-28T08:40:32.350Z,94154.59
2022-07-28T08:43:06.569Z,94162.75
2022-07-28T08:45:37.038Z,94162.06
2022-07-28T08:48:09.488Z,94169.47
2022-07-28T08:50:38.464Z,94167.63
2022-07-28T08:53:06.907Z,94173.16
2022-07-28T08:55:36.008Z,94167.59
2022-07-28T08:58:04.298Z,94175.28
2022-07-28T09:00:31.189Z,94177.50
2022-07-28T09:03:00.214Z,94171.69
2022-07-28T09:05:27.731Z,94169.34
2022-07-28T09:07:55.670Z,94178.53
2022-07-28T09:10:23.421Z,94176.44
2022-07-28T09:12:50.758Z,94182.66
2022-07-28T09:15:17.429Z,94171.94
2022-07-28T09:17:44.178Z,94182.50
2022-07-28T09:20:11.996Z,94173.19
2022-07-28T09:23:41.680Z,94178.28
2022-07-28T09:26:12.595Z,94160.47
2022-07-28T09:28:59.052Z,94164.31
2022-07-28T09:31:28.242Z,94164.47
2022-07-28T09:33:56.067Z,94171.00
2022-07-28T09:36:23.305Z,94168.03
2022-07-28T09:38:50.180Z,94163.97
2022-07-28T09:41:19.762Z,94160.03
2022-07-28T09:43:48.789Z,94162.00
2022-07-28T09:46:23.372Z,94163.41
2022-07-28T09:48:50.559Z,94171.06
2022-07-28T09:51:19.699Z,94175.59
2022-07-28T09:53:46.473Z,94169.47
2022-07-28T09:56:13.514Z,94173.22
2022-07-28T09:58:41.612Z,94174.44
2022-07-28T10:01:12.861Z,94173.28
2022-07-28T10:03:41.732Z,94171.41
2022-07-28T10:06:13.974Z,94162.53
2022-07-28T10:08:45.678Z,94170.75
2022-07-28T10:11:14.288Z,94162.69
2022-07-28T10:14:04.595Z,94163.56
2022-07-28T10:16:33.768Z,94160.28
2022-07-28T10:19:04.084Z,94167.09
2022-07-28T10:21:33.747Z,94164.19
2022-07-28T10:24:05.138Z,94158.31
2022-07-28T10:26:33.396Z,94162.53
2022-07-28T10:29:04.905Z,94165.06
2022-07-28T10:31:43.515Z,94162.00
2022-07-28T10:34:17.602Z,94165.22
2022-07-28T10:36:45.060Z,94154.41
2022-07-28T10:39:20.081Z,94154.38
2022-07-28T10:41:47.189Z,94151.31
2022-07-28T10:44:14.746Z,94149.69
2022-07-28T10:46:43.413Z,94151.03
2022-07-28T10:49:11.608Z,94140.25
2022-07-28T10:52:01.155Z,94138.59
2022-07-28T10:54:36.499Z,94135.28
2022-07-28T10:57:06.383Z,94128.16
2022-07-28T10:59:55.824Z,94129.75
2022-07-28T11:02:56.956Z,94125.09
2022-07-28T11:05:31.394Z,94125.31
2022-07-28T11:08:01.303Z,94127.09
2022-07-28T11:10:29.880Z,94124.38
2022-07-28T11:12:58.788Z,94116.72
2022-07-28T11:15:35.772Z,94110.81
2022-07-28T11:18:06.853Z,94111.22
2022-07-28T11:20:50.974Z,94101.22
2022-07-28T11:23:46.268Z,94092.50
2022-07-28T11:26:22.547Z,94084.69
2022-07-28T11:29:03.728Z,94085.69
2022-07-28T11:31:48.152Z,94079.97
2022-07-28T11:34:22.970Z,94074.91
2022-07-28T11:36:59.005Z,94077.59
2022-07-28T11:39:27.420Z,94067.69
2022-07-28T11:41:54.329Z,94079.53
2022-07-28T11:44:31.765Z,94063.72
2022-07-28T11:47:22.677Z,94059.94
2022-07-28T11:50:12.944Z,94062.56
2022-07-28T11:52:51.947Z,94071.19
2022-07-28T11:55:19.249Z,94065.38
2022-07-28T11:57:52.025Z,94075.63
2022-07-28T12:00:22.406Z,94066.97
2022-07-28T12:02:50.953Z,94065.69
2022-07-28T12:05:17.956Z,94067.91
2022-07-28T12:07:55.592Z,94068.94
2022-07-28T12:10:53.185Z,94070.47
2022-07-28T12:13:25.751Z,94072.25
2022-07-28T12:15:53.055Z,94068.84
2022-07-28T12:18:19.763Z,94066.25
2022-07-28T12:20:48.406Z,94062.50
2022-07-28T12:23:15.475Z,94066.38
2022-07-28T12:25:49.296Z,94063.53
2022-07-28T12:28:22.689Z,94063.63
2022-07-28T12:30:51.977Z,94063.56
2022-07-28T12:33:29.166Z,94058.63
2022-07-28T12:35:59.361Z,94051.78
2022-07-28T12:38:28.782Z,94053.53
2022-07-28T12:40:55.672Z,94053.78
2022-07-28T12:43:30.453Z,94048.97
2022-07-28T12:45:57.473Z,94054.69
2022-07-28T12:48:24.238Z,94052.94
2022-07-28T12:50:53.704Z,94046.97
2022-07-28T12:53:22.851Z,94050.56
2022-07-28T12:55:59.093Z,94043.97
2022-07-28T12:58:27.599Z,94033.25
2022-07-28T13:00:55.680Z,94038.78
2022-07-28T13:03:27.955Z,94037.25
2022-07-28T13:06:02.331Z,94039.44
2022-07-28T13:08:37.861Z,94042.75
2022-07-28T13:44:32.897Z,94026.31
2022-07-28T13:47:00.789Z,94027.31
2022-07-28T13:49:29.062Z,94023.19
2022-07-28T13:51:55.918Z,94024.94
2022-07-28T13:54:24.061Z,94027.00
2022-07-28T13:56:50.759Z,94022.84
2022-07-28T13:59:17.598Z,94021.19
2022-07-28T14:01:44.491Z,94014.41
2022-07-28T14:04:17.436Z,94014.50
2022-07-28T14:06:45.458Z,94017.84
2022-07-28T14:09:13.014Z,94020.69
2022-07-28T14:11:49.908Z,94014.81
2022-07-28T14:14:25.325Z,94015.38
2022-07-28T14:16:54.324Z,94022.03
2022-07-28T14:19:38.356Z,94008.91
2022-07-28T14:22:12.879Z,94013.56
2022-07-28T14:24:41.954Z,94009.22
2022-07-28T14:27:08.610Z,94009.41
2022-07-28T14:29:37.405Z,94010.03
2022-07-28T14:32:04.322Z,94007.88
2022-07-28T14:34:30.960Z,94004.84
2022-07-28T14:36:57.669Z,93997.16
2022-07-28T14:39:24.350Z,93993.53
2022-07-28T14:41:51.047Z,93992.03
2022-07-28T14:44:23.841Z,93999.97
2022-07-28T14:46:51.570Z,93998.56
2022-07-28T14:49:18.407Z,94003.38
2022-07-28T14:51:45.119Z,94000.84
2022-07-28T14:54:12.404Z,93998.91
2022-07-28T14:56:39.273Z,93998.56
2022-07-28T14:59:06.400Z,94001.78
2022-07-28T15:01:36.475Z,94008.88
2022-07-28T15:04:04.220Z,94004.66
2022-07-28T15:06:31.144Z,94014.81
2022-07-28T15:08:58.480Z,94010.59
2022-07-28T15:11:25.729Z,94018.72
2022-07-28T15:13:52.352Z,94027.16
2022-07-28T15:16:19.155Z,94032.31
2022-07-28T15:18:45.884Z,94027.03
2022-07-28T15:21:16.658Z,94017.13
2022-07-28T15:23:44.184Z,94025.94
2022-07-28T15:26:11.659Z,94023.47
2022-07-28T15:28:38.690Z,94022.16
2022-07-28T15:31:08.515Z,94013.22
2022-07-28T15:33:42.497Z,93993.91
2022-07-28T15:36:14.718Z,93989.09
2022-07-28T15:38:41.661Z,93993.78
2022-07-28T15:41:14.930Z,93994.00
2022-07-28T15:43:41.790Z,94013.38
2022-07-28T15:46:11.753Z,94005.00
2022-07-28T15:48:40.496Z,94009.56
2022-07-28T15:51:08.213Z,94018.34
2022-07-28T15:53:36.800Z,94025.50
2022-07-28T15:56:04.669Z,94031.22
2022-07-28T15:58:31.482Z,94029.25
2022-07-28T16:01:01.007Z,94024.50
2022-07-28T16:03:29.519Z,94018.41
2022-07-28T16:05:56.661Z,94025.22
2022-07-28T16:08:23.525Z,94022.34
2022-07-28T16:10:52.618Z,94020.56
2022-07-28T16:13:31.213Z,94032.63
2022-07-28T16:16:12.932Z,94039.28
2022-07-28T16:18:42.913Z,94056.63
2022-07-28T16:21:11.030Z,94078.78
2022-07-28T16:23:37.818Z,94088.25
2022-07-28T16:26:07.911Z,94094.06
2022-07-28T16:28:35.334Z,94100.50
2022-07-28T16:31:02.135Z,94112.66
2022-07-28T16:33:33.670Z,94126.63
2022-07-28T16:36:01.381Z,94130.88
2022-07-28T16:38:28.067Z,94127.00
2022-07-28T16:40:54.718Z,94127.09
2022-07-28T16:43:21.404Z,94140.44
2022-07-28T16:45:48.133Z,94128.28
2022-07-28T16:48:15.331Z,94130.25
2022-07-28T16:50:45.858Z,94142.13
2022-07-28T16:53:13.847Z,94140.97
2022-07-28T16:55:42.325Z,94139.59
2022-07-28T16:58:09.201Z,94145.69
2022-07-28T17:00:36.104Z,94157.31
2022-07-28T17:03:02.747Z,94152.75
2022-07-28T17:05:29.420Z,94162.19
2022-07-28T17:07:56.051Z,94169.97
2022-07-28T17:10:27.248Z,94170.16
2022-07-28T17:12:54.712Z,94177.13
2022-07-28T17:15:22.584Z,94167.50
2022-07-28T17:17:50.916Z,94178.47
2022-07-28T17:20:17.697Z,94176.41
2022-07-28T17:22:44.908Z,94178.03
2022-07-28T17:25:35.578Z,94179.34
2022-07-28T17:27:58.707Z,94174.44
2022-07-28T17:30:26.104Z,94175.03
2022-07-28T17:32:58.129Z,94164.44
2022-07-28T17:35:34.111Z,94169.25
2022-07-28T17:38:05.268Z,94169.97
2022-07-28T17:40:31.939Z,94174.34
2022-07-28T17:42:58.578Z,94169.09
2022-07-28T17:45:25.373Z,94176.09
2022-07-28T17:47:52.188Z,94185.75
2022-07-28T17:50:18.978Z,94184.47
2022-07-28T17:52:46.428Z,94179.66
2022-07-28T17:55:35.688Z,94185.25
2022-07-28T17:58:28.161Z,94191.38
2022-07-28T18:01:10.946Z,94195.78
2022-07-28T18:03:58.832Z,94196.00
2022-07-28T18:06:35.728Z,94187.94
2022-07-28T18:09:06.522Z,94187.59
2022-07-28T18:11:36.909Z,94188.94
2022-07-28T18:14:22.432Z,94182.94
2022-07-28T18:16:49.094Z,94182.06
2022-07-28T18:19:15.741Z,94173.16
2022-07-28T18:21:43.696Z,94160.50
2022-07-28T18:24:10.324Z,94145.03
2022-07-28T18:26:36.921Z,94145.31
2022-07-28T18:29:03.636Z,94140.97
2022-07-28T18:31:30.510Z,94147.09
2022-07-28T18:33:57.254Z,94145.47
2022-07-28T18:36:23.946Z,94152.03
2022-07-28T18:38:50.599Z,94158.44
2022-07-28T18:41:17.393Z,94166.91
2022-07-28T18:43:44.043Z,94172.25
2022-07-28T18:46:10.796Z,94170.44
2022-07-28T18:48:38.194Z,94173.78
2022-07-28T18:51:04.962Z,94169.72
2022-07-28T18:53:31.632Z,94178.09
2022-07-28T18:55:58.340Z,94172.53
2022-07-28T18:58:25.667Z,94188.28
2022-07-28T19:00:52.512Z,94184.56
2022-07-28T19:03:19.263Z,94171.28
2022-07-28T19:05:46.517Z,94175.19
2022-07-28T19:08:13.429Z,94164.19
2022-07-28T19:10:40.274Z,94163.09
2022-07-28T19:13:09.146Z,94167.84
2022-07-28T19:15:40.741Z,94167.16
2022-07-28T19:18:11.529Z,94164.13
2022-07-28T19:20:44.246Z,94177.06
2022-07-28T19:23:11.022Z,94178.94
2022-07-28T19:25:39.346Z,94194.72
2022-07-28T19:28:06.432Z,94206.75
2022-07-28T19:30:33.614Z,94213.97
2022-07-28T19:33:00.415Z,94209.72
2022-07-28T19:35:27.257Z,94227.28
2022-07-28T19:37:55.481Z,94230.16
2022-07-28T19:40:22.369Z,94243.56
2022-07-28T19:42:49.003Z,94242.28
2022-07-28T19:45:16.907Z,94255.88
2022-07-28T19:47:43.644Z,94261.13
2022-07-28T19:50:10.388Z,94266.78
2022-07-28T19:52:39.930Z,94271.56
2022-07-28T19:55:07.965Z,94284.84
2022-07-28T19:57:35.627Z,94290.38
2022-07-28T20:00:02.422Z,94296.66
2022-07-28T20:02:29.447Z,94292.09
2022-07-28T20:04:56.205Z,94290.81
2022-07-28T20:07:23.973Z,94292.09
2022-07-28T20:09:50.797Z,94296.75
2022-07-28T20:12:17.930Z,94312.56
2022-07-28T20:14:44.674Z,94303.97
2022-07-28T20:17:24.401Z,94303.41
2022-07-28T20:19:58.031Z,94307.16
2022-07-28T20:22:25.254Z,94306.88
2022-07-28T20:24:52.146Z,94310.88
2022-07-28T20:27:18.841Z,94305.03
2022-07-28T20:29:46.014Z,94304.66
2022-07-28T20:32:12.704Z,94303.81
2022-07-28T20:34:39.833Z,94310.66
2022-07-28T20:37:06.490Z,94317.03
2022-07-28T20:39:53.151Z,94320.81
2022-07-28T20:42:19.845Z,94323.66
2022-07-28T20:44:48.917Z,94331.63
2022-07-28T20:47:18.866Z,94324.84
2022-07-28T20:49:45.531Z,94323.81
2022-07-28T20:52:12.500Z,94344.13
2022-07-28T20:54:39.359Z,94347.25
2022-07-28T20:57:06.108Z,94352.19
2022-07-28T20:59:32.928Z,94367.19
2022-07-28T21:01:59.715Z,94377.53
2022-07-28T21:04:26.639Z,94370.94
2022-07-28T21:07:00.836Z,94368.78
2022-07-28T21:09:29.151Z,94376.16
2022-07-28T21:11:56.146Z,94376.00
2022-07-28T21:14:22.813Z,94372.88
2022-07-28T21:16:49.790Z,94368.25
2022-07-28T21:19:16.636Z,94365.09
2022-07-28T21:21:43.326Z,94356.88
2022-07-28T21:24:10.019Z,94366.53
2022-07-28T21:26:36.706Z,94367.81
2022-07-28T21:29:12.800Z,94354.25
2022-07-28T21:32:02.172Z,94341.09
2022-07-28T21:34:31.040Z,94333.56
2022-07-28T21:36:58.369Z,94330.19
2022-07-28T21:39:25.574Z,94331.72
2022-07-28T21:41:52.459Z,94341.97
2022-07-28T21:44:19.311Z,94344.75
2022-07-28T21:46:45.963Z,94345.91
2022-07-28T21:49:12.936Z,94342.81
2022-07-28T21:51:41.157Z,94346.38
2022-07-28T21:54:11.155Z,94342.41
2022-07-28T21:56:37.875Z,94334.69
2022-07-28T21:59:04.725Z,94338.19
2022-07-28T22:01:31.578Z,94340.94
2022-07-28T22:03:58.393Z,94349.81
2022-07-28T22:06:25.087Z,94341.50
2022-07-28T22:08:54.063Z,94342.47
2022-07-28T22:11:22.624Z,94339.72
2022-07-28T22:13:49.741Z,94347.75
2022-07-28T22:16:16.609Z,94341.78
2022-07-28T22:18:43.342Z,94337.00
2022-07-28T22:21:09.991Z,94329.50
2022-07-28T22:23:36.642Z,94324.78
2022-07-28T22:26:03.747Z,94332.97
2022-07-28T22:28:30.834Z,94337.53
2022-07-28T22:30:59.033Z,94327.28
2022-07-28T22:33:39.098Z,94318.38
2022-07-28T22:36:07.738Z,94313.28
2022-07-28T22:38:34.556Z,94316.63
2022-07-28T22:41:01.259Z,94323.81
2022-07-28T22:43:28.016Z,94315.69
2022-07-28T22:45:54.705Z,94309.84
2022-07-28T22:48:21.412Z,94313.38
2022-07-28T22:50:48.137Z,94317.59
2022-07-28T22:53:14.898Z,94315.91
2022-07-28T22:58:25.737Z,94320.59
2022-07-28T23:00:52.580Z,94309.41
2022-07-28T23:03:19.512Z,94308.66
2022-07-28T23:05:46.503Z,94312.41
2022-07-28T23:08:13.448Z,94299.03
2022-07-28T23:10:40.271Z,94296.22
2022-07-28T23:13:07.219Z,94292.16
2022-07-28T23:15:40.195Z,94292.34
2022-07-28T23:18:11.657Z,94287.69
2022-07-28T23:20:39.578Z,94283.09
2022-07-28T23:23:07.260Z,94280.78
2022-07-28T23:25:37.080Z,94275.63
2022-07-28T23:28:03.955Z,94279.53
2022-07-28T23:30:30.750Z,94279.53
2022-07-28T23:32:57.718Z,94286.00
2022-07-28T23:35:24.686Z,94289.63
2022-07-28T23:37:51.472Z,94294.41
2022-07-28T23:40:18.237Z,94293.78
2022-07-28T23:42:45.004Z,94290.19
2022-07-28T23:45:11.943Z,94297.72
2022-07-28T23:47:38.895Z,94310.34
2022-07-28T23:50:06.375Z,94313.38
2022-07-28T23:52:33.348Z,94316.56
2022-07-28T23:55:00.148Z,94323.94
2022-07-28T23:57:30.764Z,94327.72
2022-07-28T23:59:59.319Z,94345.47
